sensor_id;sensor_type;location;lat;lon;timestamp;temperature;humidity
11846;DHT22;5982;37.494;-8.758;2023-06-19T00:01:02;19.70;99.90
11846;DHT22;5982;37.494;-8.758;2023-06-19T00:03:30;19.60;99.90
11846;DHT22;5982;37.494;-8.758;2023-06-19T00:05:57;19.60;99.90
11846;DHT22;5982;37.494;-8.758;2023-06-19T00:08:25;19.60;99.90
11846;DHT22;5982;37.494;-8.758;2023-06-19T00:10:53;19.60;99.90
11846;DHT22;5982;37.494;-8.758;2023-06-19T00:13:21;19.60;99.90
11846;DHT22;5982;37.494;-8.758;2023-06-19T00:15:49;19.60;99.90
11846;DHT22;5982;37.494;-8.758;2023-06-19T00:18:18;19.60;99.90
11846;DHT22;5982;37.494;-8.758;2023-06-19T00:20:46;19.60;99.90
11846;DHT22;5982;37.494;-8.758;2023-06-19T00:23:14;19.50;99.90
11846;DHT22;5982;37.494;-8.758;2023-06-19T00:25:42;19.50;99.90
11846;DHT22;5982;37.494;-8.758;2023-06-19T00:28:10;19.40;99.90
11846;DHT22;5982;37.494;-8.758;2023-06-19T00:30:40;19.50;99.90
11846;DHT22;5982;37.494;-8.758;2023-06-19T00:33:08;19.40;99.90
11846;DHT22;5982;37.494;-8.758;2023-06-19T00:35:38;19.40;99.90
11846;DHT22;5982;37.494;-8.758;2023-06-19T00:38:07;19.40;99.90
11846;DHT22;5982;37.494;-8.758;2023-06-19T00:40:35;19.40;99.90
11846;DHT22;5982;37.494;-8.758;2023-06-19T00:43:03;19.40;99.90
11846;DHT22;5982;37.494;-8.758;2023-06-19T00:45:31;19.40;99.90
11846;DHT22;5982;37.494;-8.758;2023-06-19T00:47:59;19.40;99.90
11846;DHT22;5982;37.494;-8.758;2023-06-19T00:50:27;19.40;99.90
11846;DHT22;5982;37.494;-8.758;2023-06-19T00:52:58;19.40;99.90
11846;DHT22;5982;37.494;-8.758;2023-06-19T00:55:28;19.30;99.90
11846;DHT22;5982;37.494;-8.758;2023-06-19T00:57:56;19.30;99.90
11846;DHT22;5982;37.494;-8.758;2023-06-19T01:00:25;19.30;99.90
11846;DHT22;5982;37.494;-8.758;2023-06-19T01:02:53;19.20;99.90
11846;DHT22;5982;37.494;-8.758;2023-06-19T01:05:21;19.10;99.90
11846;DHT22;5982;37.494;-8.758;2023-06-19T01:07:52;19.10;99.90
11846;DHT22;5982;37.494;-8.758;2023-06-19T01:10:29;19.10;99.90
11846;DHT22;5982;37.494;-8.758;2023-06-19T01:13:00;19.10;99.90
11846;DHT22;5982;37.494;-8.758;2023-06-19T01:15:30;19.10;99.90
11846;DHT22;5982;37.494;-8.758;2023-06-19T01:17:58;19.00;99.90
11846;DHT22;5982;37.494;-8.758;2023-06-19T01:20:26;19.00;99.90
11846;DHT22;5982;37.494;-8.758;2023-06-19T01:22:56;19.00;99.90
11846;DHT22;5982;37.494;-8.758;2023-06-19T01:25:24;18.90;99.90
11846;DHT22;5982;37.494;-8.758;2023-06-19T01:27:51;18.80;99.90
11846;DHT22;5982;37.494;-8.758;2023-06-19T01:30:20;18.80;99.90
11846;DHT22;5982;37.494;-8.758;2023-06-19T01:32:50;18.70;99.90
11846;DHT22;5982;37.494;-8.758;2023-06-19T01:35:23;18.70;99.90
11846;DHT22;5982;37.494;-8.758;2023-06-19T01:37:53;18.60;99.90
11846;DHT22;5982;37.494;-8.758;2023-06-19T01:40:22;18.50;99.90
11846;DHT22;5982;37.494;-8.758;2023-06-19T01:42:51;18.40;99.90
11846;DHT22;5982;37.494;-8.758;2023-06-19T01:45:20;18.40;99.90
11846;DHT22;5982;37.494;-8.758;2023-06-19T01:47:48;18.40;99.90
11846;DHT22;5982;37.494;-8.758;2023-06-19T01:50:15;18.40;99.90
11846;DHT22;5982;37.494;-8.758;2023-06-19T01:52:44;18.30;99.90
11846;DHT22;5982;37.494;-8.758;2023-06-19T01:55:12;18.20;99.90
11846;DHT22;5982;37.494;-8.758;2023-06-19T01:57:42;18.20;99.90
11846;DHT22;5982;37.494;-8.758;2023-06-19T02:00:11;18.20;99.90
11846;DHT22;5982;37.494;-8.758;2023-06-19T02:02:39;18.30;99.90
11846;DHT22;5982;37.494;-8.758;2023-06-19T02:05:07;18.30;99.90
11846;DHT22;5982;37.494;-8.758;2023-06-19T02:07:35;18.30;99.90
11846;DHT22;5982;37.494;-8.758;2023-06-19T02:10:03;18.20;99.90
11846;DHT22;5982;37.494;-8.758;2023-06-19T02:12:31;18.20;99.90
11846;DHT22;5982;37.494;-8.758;2023-06-19T02:15:01;18.00;99.90
11846;DHT22;5982;37.494;-8.758;2023-06-19T02:17:28;17.90;99.90
11846;DHT22;5982;37.494;-8.758;2023-06-19T02:19:56;17.80;99.90
11846;DHT22;5982;37.494;-8.758;2023-06-19T02:22:24;17.60;99.90
11846;DHT22;5982;37.494;-8.758;2023-06-19T02:24:52;17.50;99.90
11846;DHT22;5982;37.494;-8.758;2023-06-19T02:27:20;17.50;99.90
11846;DHT22;5982;37.494;-8.758;2023-06-19T02:29:47;17.50;99.90
11846;DHT22;5982;37.494;-8.758;2023-06-19T02:32:17;17.60;99.90
11846;DHT22;5982;37.494;-8.758;2023-06-19T02:34:45;17.70;99.90
11846;DHT22;5982;37.494;-8.758;2023-06-19T02:37:13;17.80;99.90
11846;DHT22;5982;37.494;-8.758;2023-06-19T02:39:40;17.80;99.90
11846;DHT22;5982;37.494;-8.758;2023-06-19T02:42:08;17.80;99.90
11846;DHT22;5982;37.494;-8.758;2023-06-19T02:44:36;17.80;99.90
11846;DHT22;5982;37.494;-8.758;2023-06-19T02:47:04;17.80;99.90
11846;DHT22;5982;37.494;-8.758;2023-06-19T02:49:34;17.80;99.90
11846;DHT22;5982;37.494;-8.758;2023-06-19T02:52:01;17.80;99.90
11846;DHT22;5982;37.494;-8.758;2023-06-19T02:54:29;17.70;99.90
11846;DHT22;5982;37.494;-8.758;2023-06-19T02:56:57;17.50;99.90
11846;DHT22;5982;37.494;-8.758;2023-06-19T02:59:25;17.50;99.90
11846;DHT22;5982;37.494;-8.758;2023-06-19T03:01:53;17.40;99.90
11846;DHT22;5982;37.494;-8.758;2023-06-19T03:04:21;17.40;99.90
11846;DHT22;5982;37.494;-8.758;2023-06-19T03:06:50;17.50;99.90
11846;DHT22;5982;37.494;-8.758;2023-06-19T03:09:18;17.50;99.90
11846;DHT22;5982;37.494;-8.758;2023-06-19T03:11:46;17.40;99.90
11846;DHT22;5982;37.494;-8.758;2023-06-19T03:14:14;17.40;99.90
11846;DHT22;5982;37.494;-8.758;2023-06-19T03:16:41;17.40;99.90
11846;DHT22;5982;37.494;-8.758;2023-06-19T03:19:09;17.30;99.90
11846;DHT22;5982;37.494;-8.758;2023-06-19T03:21:37;17.30;99.90
11846;DHT22;5982;37.494;-8.758;2023-06-19T03:24:06;17.20;99.90
11846;DHT22;5982;37.494;-8.758;2023-06-19T03:26:34;17.20;99.90
11846;DHT22;5982;37.494;-8.758;2023-06-19T03:29:02;17.20;99.90
11846;DHT22;5982;37.494;-8.758;2023-06-19T03:31:30;17.30;99.90
11846;DHT22;5982;37.494;-8.758;2023-06-19T03:33:58;17.40;99.90
11846;DHT22;5982;37.494;-8.758;2023-06-19T03:36:26;17.50;99.90
11846;DHT22;5982;37.494;-8.758;2023-06-19T03:38:53;17.70;99.90
11846;DHT22;5982;37.494;-8.758;2023-06-19T03:41:23;17.80;99.90
11846;DHT22;5982;37.494;-8.758;2023-06-19T03:43:51;17.90;99.90
11846;DHT22;5982;37.494;-8.758;2023-06-19T03:46:19;18.10;99.90
11846;DHT22;5982;37.494;-8.758;2023-06-19T03:48:47;18.10;99.90
11846;DHT22;5982;37.494;-8.758;2023-06-19T03:51:15;18.10;99.90
11846;DHT22;5982;37.494;-8.758;2023-06-19T03:53:42;18.20;99.90
11846;DHT22;5982;37.494;-8.758;2023-06-19T03:56:10;18.30;99.90
11846;DHT22;5982;37.494;-8.758;2023-06-19T03:58:40;18.40;99.90
11846;DHT22;5982;37.494;-8.758;2023-06-19T04:01:07;18.50;99.90
11846;DHT22;5982;37.494;-8.758;2023-06-19T04:03:35;18.50;99.90
11846;DHT22;5982;37.494;-8.758;2023-06-19T04:06:03;18.50;99.90
11846;DHT22;5982;37.494;-8.758;2023-06-19T04:08:31;18.40;99.90
11846;DHT22;5982;37.494;-8.758;2023-06-19T04:11:05;18.50;99.90
11846;DHT22;5982;37.494;-8.758;2023-06-19T04:13:32;18.40;99.90
11846;DHT22;5982;37.494;-8.758;2023-06-19T04:16:02;18.40;99.90
11846;DHT22;5982;37.494;-8.758;2023-06-19T04:18:30;18.30;99.90
11846;DHT22;5982;37.494;-8.758;2023-06-19T04:20:58;18.20;99.90
11846;DHT22;5982;37.494;-8.758;2023-06-19T04:23:25;18.10;99.90
11846;DHT22;5982;37.494;-8.758;2023-06-19T04:25:53;18.10;99.90
11846;DHT22;5982;37.494;-8.758;2023-06-19T04:28:21;18.10;99.90
11846;DHT22;5982;37.494;-8.758;2023-06-19T04:30:49;18.10;99.90
11846;DHT22;5982;37.494;-8.758;2023-06-19T04:33:18;18.10;99.90
11846;DHT22;5982;37.494;-8.758;2023-06-19T04:35:47;18.10;99.90
11846;DHT22;5982;37.494;-8.758;2023-06-19T04:38:14;18.00;99.90
11846;DHT22;5982;37.494;-8.758;2023-06-19T04:40:42;17.90;99.90
11846;DHT22;5982;37.494;-8.758;2023-06-19T04:43:10;17.90;99.90
11846;DHT22;5982;37.494;-8.758;2023-06-19T04:45:38;17.90;99.90
11846;DHT22;5982;37.494;-8.758;2023-06-19T04:48:06;18.00;99.90
11846;DHT22;5982;37.494;-8.758;2023-06-19T04:50:35;17.90;99.90
11846;DHT22;5982;37.494;-8.758;2023-06-19T04:53:03;17.80;99.90
11846;DHT22;5982;37.494;-8.758;2023-06-19T04:55:31;17.80;99.90
11846;DHT22;5982;37.494;-8.758;2023-06-19T04:57:59;17.80;99.90
11846;DHT22;5982;37.494;-8.758;2023-06-19T05:00:27;17.80;99.90
11846;DHT22;5982;37.494;-8.758;2023-06-19T05:02:55;17.80;99.90
11846;DHT22;5982;37.494;-8.758;2023-06-19T05:05:26;17.80;99.90
11846;DHT22;5982;37.494;-8.758;2023-06-19T05:07:56;17.80;99.90
11846;DHT22;5982;37.494;-8.758;2023-06-19T05:10:23;17.80;99.90
11846;DHT22;5982;37.494;-8.758;2023-06-19T05:12:51;17.70;99.90
11846;DHT22;5982;37.494;-8.758;2023-06-19T05:15:19;17.60;99.90
11846;DHT22;5982;37.494;-8.758;2023-06-19T05:17:47;17.70;99.90
11846;DHT22;5982;37.494;-8.758;2023-06-19T05:20:15;17.80;99.90
11846;DHT22;5982;37.494;-8.758;2023-06-19T05:22:43;17.80;99.90
11846;DHT22;5982;37.494;-8.758;2023-06-19T05:25:12;17.90;99.90
11846;DHT22;5982;37.494;-8.758;2023-06-19T05:27:40;17.90;99.90
11846;DHT22;5982;37.494;-8.758;2023-06-19T05:30:08;18.00;99.90
11846;DHT22;5982;37.494;-8.758;2023-06-19T05:32:36;18.00;99.90
11846;DHT22;5982;37.494;-8.758;2023-06-19T05:35:05;17.90;99.90
11846;DHT22;5982;37.494;-8.758;2023-06-19T05:37:33;17.90;99.90
11846;DHT22;5982;37.494;-8.758;2023-06-19T05:40:01;17.90;99.90
11846;DHT22;5982;37.494;-8.758;2023-06-19T05:42:30;17.90;99.90
11846;DHT22;5982;37.494;-8.758;2023-06-19T05:44:58;17.90;99.90
11846;DHT22;5982;37.494;-8.758;2023-06-19T05:47:26;18.10;99.90
11846;DHT22;5982;37.494;-8.758;2023-06-19T05:49:55;18.10;99.90
11846;DHT22;5982;37.494;-8.758;2023-06-19T05:52:23;18.10;99.90
11846;DHT22;5982;37.494;-8.758;2023-06-19T05:54:51;18.10;99.90
11846;DHT22;5982;37.494;-8.758;2023-06-19T05:57:19;18.00;99.90
11846;DHT22;5982;37.494;-8.758;2023-06-19T05:59:49;18.00;99.90
11846;DHT22;5982;37.494;-8.758;2023-06-19T06:02:18;18.10;99.90
11846;DHT22;5982;37.494;-8.758;2023-06-19T06:04:46;18.60;99.90
11846;DHT22;5982;37.494;-8.758;2023-06-19T06:07:14;18.60;99.90
11846;DHT22;5982;37.494;-8.758;2023-06-19T06:09:42;18.70;99.90
11846;DHT22;5982;37.494;-8.758;2023-06-19T06:12:10;19.20;99.90
11846;DHT22;5982;37.494;-8.758;2023-06-19T06:14:39;20.70;99.90
11846;DHT22;5982;37.494;-8.758;2023-06-19T06:17:09;21.80;99.90
11846;DHT22;5982;37.494;-8.758;2023-06-19T06:19:37;22.50;99.90
11846;DHT22;5982;37.494;-8.758;2023-06-19T06:22:05;23.50;99.90
11846;DHT22;5982;37.494;-8.758;2023-06-19T06:24:33;24.50;99.90
11846;DHT22;5982;37.494;-8.758;2023-06-19T06:27:01;25.50;99.90
11846;DHT22;5982;37.494;-8.758;2023-06-19T06:29:30;26.40;99.90
11846;DHT22;5982;37.494;-8.758;2023-06-19T06:32:02;27.10;99.90
11846;DHT22;5982;37.494;-8.758;2023-06-19T06:34:33;27.80;99.90
11846;DHT22;5982;37.494;-8.758;2023-06-19T06:37:01;28.40;99.90
11846;DHT22;5982;37.494;-8.758;2023-06-19T06:39:30;29.10;99.90
11846;DHT22;5982;37.494;-8.758;2023-06-19T06:41:58;29.70;99.90
11846;DHT22;5982;37.494;-8.758;2023-06-19T06:44:26;30.20;99.90
11846;DHT22;5982;37.494;-8.758;2023-06-19T06:46:53;30.40;99.90
11846;DHT22;5982;37.494;-8.758;2023-06-19T06:49:21;30.70;99.90
11846;DHT22;5982;37.494;-8.758;2023-06-19T06:51:51;30.90;99.90
11846;DHT22;5982;37.494;-8.758;2023-06-19T06:54:19;31.10;99.90
11846;DHT22;5982;37.494;-8.758;2023-06-19T06:56:46;31.30;99.90
11846;DHT22;5982;37.494;-8.758;2023-06-19T06:59:14;31.60;99.90
11846;DHT22;5982;37.494;-8.758;2023-06-19T07:01:42;31.90;99.90
11846;DHT22;5982;37.494;-8.758;2023-06-19T07:04:10;32.00;99.90
11846;DHT22;5982;37.494;-8.758;2023-06-19T07:06:38;32.00;99.90
11846;DHT22;5982;37.494;-8.758;2023-06-19T07:09:07;31.70;99.90
11846;DHT22;5982;37.494;-8.758;2023-06-19T07:11:35;31.30;99.90
11846;DHT22;5982;37.494;-8.758;2023-06-19T07:14:03;30.70;99.90
11846;DHT22;5982;37.494;-8.758;2023-06-19T07:16:30;30.00;99.90
11846;DHT22;5982;37.494;-8.758;2023-06-19T07:18:58;29.10;99.90
11846;DHT22;5982;37.494;-8.758;2023-06-19T07:21:26;28.30;99.90
11846;DHT22;5982;37.494;-8.758;2023-06-19T07:23:55;27.70;99.90
11846;DHT22;5982;37.494;-8.758;2023-06-19T07:26:24;27.30;99.90
11846;DHT22;5982;37.494;-8.758;2023-06-19T07:28:52;27.00;99.90
11846;DHT22;5982;37.494;-8.758;2023-06-19T07:31:20;26.70;99.90
11846;DHT22;5982;37.494;-8.758;2023-06-19T07:33:48;26.40;99.90
11846;DHT22;5982;37.494;-8.758;2023-06-19T07:36:16;26.10;99.90
11846;DHT22;5982;37.494;-8.758;2023-06-19T07:38:44;25.90;99.90
11846;DHT22;5982;37.494;-8.758;2023-06-19T07:41:12;25.70;99.90
11846;DHT22;5982;37.494;-8.758;2023-06-19T07:43:42;25.50;99.90
11846;DHT22;5982;37.494;-8.758;2023-06-19T07:46:10;25.60;99.90
11846;DHT22;5982;37.494;-8.758;2023-06-19T07:48:37;25.70;99.90
11846;DHT22;5982;37.494;-8.758;2023-06-19T07:51:05;25.80;99.90
11846;DHT22;5982;37.494;-8.758;2023-06-19T07:53:33;25.90;99.90
11846;DHT22;5982;37.494;-8.758;2023-06-19T07:56:01;26.00;99.90
11846;DHT22;5982;37.494;-8.758;2023-06-19T07:58:29;26.10;99.90
11846;DHT22;5982;37.494;-8.758;2023-06-19T08:00:58;26.30;99.90
11846;DHT22;5982;37.494;-8.758;2023-06-19T08:03:26;26.40;99.90
11846;DHT22;5982;37.494;-8.758;2023-06-19T08:05:54;26.40;99.90
11846;DHT22;5982;37.494;-8.758;2023-06-19T08:08:22;26.50;99.90
11846;DHT22;5982;37.494;-8.758;2023-06-19T08:10:49;26.60;99.90
11846;DHT22;5982;37.494;-8.758;2023-06-19T08:13:17;26.50;99.90
11846;DHT22;5982;37.494;-8.758;2023-06-19T08:15:45;26.50;99.90
11846;DHT22;5982;37.494;-8.758;2023-06-19T08:18:14;26.60;99.90
11846;DHT22;5982;37.494;-8.758;2023-06-19T08:20:43;26.70;99.90
11846;DHT22;5982;37.494;-8.758;2023-06-19T08:23:10;26.70;99.90
11846;DHT22;5982;37.494;-8.758;2023-06-19T08:25:38;26.60;99.90
11846;DHT22;5982;37.494;-8.758;2023-06-19T08:28:06;26.70;99.90
11846;DHT22;5982;37.494;-8.758;2023-06-19T08:30:34;26.80;99.90
11846;DHT22;5982;37.494;-8.758;2023-06-19T08:33:04;27.10;99.90
11846;DHT22;5982;37.494;-8.758;2023-06-19T08:35:34;27.20;99.90
11846;DHT22;5982;37.494;-8.758;2023-06-19T08:38:02;27.30;99.90
11846;DHT22;5982;37.494;-8.758;2023-06-19T08:40:29;27.50;99.90
11846;DHT22;5982;37.494;-8.758;2023-06-19T08:42:57;27.60;99.90
11846;DHT22;5982;37.494;-8.758;2023-06-19T08:45:26;27.60;99.90
11846;DHT22;5982;37.494;-8.758;2023-06-19T08:47:57;27.60;99.90
11846;DHT22;5982;37.494;-8.758;2023-06-19T08:50:25;27.70;99.90
11846;DHT22;5982;37.494;-8.758;2023-06-19T08:52:56;27.80;99.90
11846;DHT22;5982;37.494;-8.758;2023-06-19T08:55:24;27.90;99.90
11846;DHT22;5982;37.494;-8.758;2023-06-19T08:57:52;27.80;99.90
11846;DHT22;5982;37.494;-8.758;2023-06-19T09:00:23;28.00;99.90
11846;DHT22;5982;37.494;-8.758;2023-06-19T09:02:52;28.20;99.90
11846;DHT22;5982;37.494;-8.758;2023-06-19T09:05:25;28.30;99.90
11846;DHT22;5982;37.494;-8.758;2023-06-19T09:07:58;28.40;99.90
11846;DHT22;5982;37.494;-8.758;2023-06-19T09:10:27;28.50;99.90
11846;DHT22;5982;37.494;-8.758;2023-06-19T09:12:58;28.40;99.90
11846;DHT22;5982;37.494;-8.758;2023-06-19T09:15:27;28.40;99.90
11846;DHT22;5982;37.494;-8.758;2023-06-19T09:18:02;28.40;99.90
11846;DHT22;5982;37.494;-8.758;2023-06-19T09:20:31;28.40;99.90
11846;DHT22;5982;37.494;-8.758;2023-06-19T09:23:01;28.60;99.90
11846;DHT22;5982;37.494;-8.758;2023-06-19T09:25:29;28.70;99.90
11846;DHT22;5982;37.494;-8.758;2023-06-19T09:27:57;28.70;99.90
11846;DHT22;5982;37.494;-8.758;2023-06-19T09:30:25;28.60;99.90
11846;DHT22;5982;37.494;-8.758;2023-06-19T09:32:52;28.60;99.90
11846;DHT22;5982;37.494;-8.758;2023-06-19T09:35:20;28.60;99.90
11846;DHT22;5982;37.494;-8.758;2023-06-19T09:37:48;28.70;99.90
11846;DHT22;5982;37.494;-8.758;2023-06-19T09:40:18;28.70;99.90
11846;DHT22;5982;37.494;-8.758;2023-06-19T09:42:46;28.80;99.90
11846;DHT22;5982;37.494;-8.758;2023-06-19T09:45:16;28.70;99.90
11846;DHT22;5982;37.494;-8.758;2023-06-19T09:47:46;28.80;99.90
11846;DHT22;5982;37.494;-8.758;2023-06-19T09:50:15;29.10;99.90
11846;DHT22;5982;37.494;-8.758;2023-06-19T09:52:44;29.30;99.90
11846;DHT22;5982;37.494;-8.758;2023-06-19T09:55:12;29.30;99.90
11846;DHT22;5982;37.494;-8.758;2023-06-19T09:57:42;29.30;99.90
11846;DHT22;5982;37.494;-8.758;2023-06-19T10:00:11;29.30;99.90
11846;DHT22;5982;37.494;-8.758;2023-06-19T10:02:42;29.30;99.90
11846;DHT22;5982;37.494;-8.758;2023-06-19T10:05:11;29.50;99.90
11846;DHT22;5982;37.494;-8.758;2023-06-19T10:07:41;29.60;99.90
11846;DHT22;5982;37.494;-8.758;2023-06-19T10:10:10;29.60;99.90
11846;DHT22;5982;37.494;-8.758;2023-06-19T10:12:40;29.60;99.90
11846;DHT22;5982;37.494;-8.758;2023-06-19T10:15:11;29.30;99.90
11846;DHT22;5982;37.494;-8.758;2023-06-19T10:17:47;29.10;99.90
11846;DHT22;5982;37.494;-8.758;2023-06-19T10:20:21;28.90;99.90
11846;DHT22;5982;37.494;-8.758;2023-06-19T10:22:51;29.00;99.90
11846;DHT22;5982;37.494;-8.758;2023-06-19T10:25:20;29.10;99.90
11846;DHT22;5982;37.494;-8.758;2023-06-19T10:27:50;29.30;99.90
11846;DHT22;5982;37.494;-8.758;2023-06-19T10:30:20;29.50;99.90
11846;DHT22;5982;37.494;-8.758;2023-06-19T10:32:48;29.70;99.90
11846;DHT22;5982;37.494;-8.758;2023-06-19T10:35:16;29.80;99.90
11846;DHT22;5982;37.494;-8.758;2023-06-19T10:37:46;29.80;99.90
11846;DHT22;5982;37.494;-8.758;2023-06-19T10:40:15;29.80;99.90
11846;DHT22;5982;37.494;-8.758;2023-06-19T10:42:43;29.80;99.90
11846;DHT22;5982;37.494;-8.758;2023-06-19T10:45:13;29.90;99.90
11846;DHT22;5982;37.494;-8.758;2023-06-19T10:47:46;30.00;99.90
11846;DHT22;5982;37.494;-8.758;2023-06-19T10:50:14;29.90;99.90
11846;DHT22;5982;37.494;-8.758;2023-06-19T10:52:43;29.70;99.90
11846;DHT22;5982;37.494;-8.758;2023-06-19T10:55:12;29.60;99.90
11846;DHT22;5982;37.494;-8.758;2023-06-19T10:57:43;29.70;99.90
11846;DHT22;5982;37.494;-8.758;2023-06-19T11:00:21;29.90;99.90
11846;DHT22;5982;37.494;-8.758;2023-06-19T11:02:50;29.80;99.90
11846;DHT22;5982;37.494;-8.758;2023-06-19T11:05:19;29.60;99.90
11846;DHT22;5982;37.494;-8.758;2023-06-19T11:07:50;29.20;99.90
11846;DHT22;5982;37.494;-8.758;2023-06-19T11:10:22;28.90;99.90
11846;DHT22;5982;37.494;-8.758;2023-06-19T11:12:52;28.40;99.90
11846;DHT22;5982;37.494;-8.758;2023-06-19T11:15:29;28.10;99.90
11846;DHT22;5982;37.494;-8.758;2023-06-19T11:17:57;27.70;99.90
11846;DHT22;5982;37.494;-8.758;2023-06-19T11:20:25;27.40;99.90
11846;DHT22;5982;37.494;-8.758;2023-06-19T11:22:57;27.10;99.90
11846;DHT22;5982;37.494;-8.758;2023-06-19T11:25:34;26.80;99.90
11846;DHT22;5982;37.494;-8.758;2023-06-19T11:28:02;26.70;99.90
11846;DHT22;5982;37.494;-8.758;2023-06-19T11:30:33;26.60;99.90
11846;DHT22;5982;37.494;-8.758;2023-06-19T11:33:01;26.60;99.90
11846;DHT22;5982;37.494;-8.758;2023-06-19T11:35:32;26.80;99.90
11846;DHT22;5982;37.494;-8.758;2023-06-19T11:38:02;27.10;99.90
11846;DHT22;5982;37.494;-8.758;2023-06-19T11:40:38;27.40;99.90
11846;DHT22;5982;37.494;-8.758;2023-06-19T11:43:07;27.70;99.90
11846;DHT22;5982;37.494;-8.758;2023-06-19T11:45:45;28.10;99.90
11846;DHT22;5982;37.494;-8.758;2023-06-19T11:48:21;28.30;99.90
11846;DHT22;5982;37.494;-8.758;2023-06-19T11:50:49;28.50;99.90
11846;DHT22;5982;37.494;-8.758;2023-06-19T11:53:18;28.50;99.90
11846;DHT22;5982;37.494;-8.758;2023-06-19T11:55:46;28.40;99.90
11846;DHT22;5982;37.494;-8.758;2023-06-19T11:58:14;28.30;99.90
11846;DHT22;5982;37.494;-8.758;2023-06-19T12:00:42;28.40;99.90
11846;DHT22;5982;37.494;-8.758;2023-06-19T12:03:12;28.50;99.90
11846;DHT22;5982;37.494;-8.758;2023-06-19T12:05:39;28.90;99.90
11846;DHT22;5982;37.494;-8.758;2023-06-19T12:08:07;29.20;99.90
11846;DHT22;5982;37.494;-8.758;2023-06-19T12:10:35;29.60;99.90
11846;DHT22;5982;37.494;-8.758;2023-06-19T12:13:03;29.70;99.90
11846;DHT22;5982;37.494;-8.758;2023-06-19T12:15:31;29.70;99.90
11846;DHT22;5982;37.494;-8.758;2023-06-19T12:17:59;29.70;99.90
11846;DHT22;5982;37.494;-8.758;2023-06-19T12:20:28;30.00;99.90
11846;DHT22;5982;37.494;-8.758;2023-06-19T12:22:56;29.90;99.90
11846;DHT22;5982;37.494;-8.758;2023-06-19T12:25:24;30.00;99.90
11846;DHT22;5982;37.494;-8.758;2023-06-19T12:27:51;29.80;99.90
11846;DHT22;5982;37.494;-8.758;2023-06-19T12:30:19;29.60;99.90
11846;DHT22;5982;37.494;-8.758;2023-06-19T12:32:47;29.30;99.90
11846;DHT22;5982;37.494;-8.758;2023-06-19T12:35:15;29.20;99.90
11846;DHT22;5982;37.494;-8.758;2023-06-19T12:37:45;29.00;99.90
11846;DHT22;5982;37.494;-8.758;2023-06-19T12:40:13;28.60;99.90
11846;DHT22;5982;37.494;-8.758;2023-06-19T12:42:42;28.00;99.90
11846;DHT22;5982;37.494;-8.758;2023-06-19T12:45:10;27.30;99.90
11846;DHT22;5982;37.494;-8.758;2023-06-19T12:47:38;26.80;99.90
11846;DHT22;5982;37.494;-8.758;2023-06-19T12:50:06;26.50;99.90
11846;DHT22;5982;37.494;-8.758;2023-06-19T12:52:35;26.40;99.90
11846;DHT22;5982;37.494;-8.758;2023-06-19T12:55:05;26.40;99.90
11846;DHT22;5982;37.494;-8.758;2023-06-19T12:57:33;26.40;99.90
11846;DHT22;5982;37.494;-8.758;2023-06-19T13:00:01;26.50;99.90
11846;DHT22;5982;37.494;-8.758;2023-06-19T13:02:31;26.50;99.90
11846;DHT22;5982;37.494;-8.758;2023-06-19T13:04:59;26.50;99.90
11846;DHT22;5982;37.494;-8.758;2023-06-19T13:07:27;26.40;99.90
11846;DHT22;5982;37.494;-8.758;2023-06-19T13:09:55;26.30;99.90
11846;DHT22;5982;37.494;-8.758;2023-06-19T13:12:25;26.30;99.90
11846;DHT22;5982;37.494;-8.758;2023-06-19T13:14:53;26.30;99.90
11846;DHT22;5982;37.494;-8.758;2023-06-19T13:17:20;26.20;99.90
11846;DHT22;5982;37.494;-8.758;2023-06-19T13:19:48;26.20;99.90
11846;DHT22;5982;37.494;-8.758;2023-06-19T13:22:16;26.20;99.90
11846;DHT22;5982;37.494;-8.758;2023-06-19T13:24:44;26.50;99.90
11846;DHT22;5982;37.494;-8.758;2023-06-19T13:27:12;26.60;99.90
11846;DHT22;5982;37.494;-8.758;2023-06-19T13:29:41;26.80;99.90
11846;DHT22;5982;37.494;-8.758;2023-06-19T13:32:09;27.20;99.90
11846;DHT22;5982;37.494;-8.758;2023-06-19T13:34:37;27.40;99.90
11846;DHT22;5982;37.494;-8.758;2023-06-19T13:37:05;27.60;99.90
11846;DHT22;5982;37.494;-8.758;2023-06-19T13:39:33;27.80;99.90
11846;DHT22;5982;37.494;-8.758;2023-06-19T13:42:00;28.10;99.90
11846;DHT22;5982;37.494;-8.758;2023-06-19T13:44:28;28.60;99.90
11846;DHT22;5982;37.494;-8.758;2023-06-19T13:46:58;29.00;99.90
11846;DHT22;5982;37.494;-8.758;2023-06-19T13:49:26;29.50;99.90
11846;DHT22;5982;37.494;-8.758;2023-06-19T13:51:54;29.50;99.90
11846;DHT22;5982;37.494;-8.758;2023-06-19T13:54:22;29.20;99.90
11846;DHT22;5982;37.494;-8.758;2023-06-19T13:56:50;28.90;99.90
11846;DHT22;5982;37.494;-8.758;2023-06-19T13:59:18;28.60;99.90
11846;DHT22;5982;37.494;-8.758;2023-06-19T14:01:46;28.50;99.90
11846;DHT22;5982;37.494;-8.758;2023-06-19T14:04:15;28.50;99.90
11846;DHT22;5982;37.494;-8.758;2023-06-19T14:06:43;28.40;99.90
11846;DHT22;5982;37.494;-8.758;2023-06-19T14:09:11;28.40;99.90
11846;DHT22;5982;37.494;-8.758;2023-06-19T14:11:39;28.20;99.90
11846;DHT22;5982;37.494;-8.758;2023-06-19T14:14:08;27.90;99.90
11846;DHT22;5982;37.494;-8.758;2023-06-19T14:16:36;27.60;99.90
11846;DHT22;5982;37.494;-8.758;2023-06-19T14:19:04;27.30;99.90
11846;DHT22;5982;37.494;-8.758;2023-06-19T14:21:33;27.20;99.90
11846;DHT22;5982;37.494;-8.758;2023-06-19T14:24:01;27.10;99.90
11846;DHT22;5982;37.494;-8.758;2023-06-19T14:26:29;27.10;99.90
11846;DHT22;5982;37.494;-8.758;2023-06-19T14:28:57;27.20;99.90
11846;DHT22;5982;37.494;-8.758;2023-06-19T14:31:25;27.30;99.90
11846;DHT22;5982;37.494;-8.758;2023-06-19T14:33:53;27.40;99.90
11846;DHT22;5982;37.494;-8.758;2023-06-19T14:36:21;27.90;99.90
11846;DHT22;5982;37.494;-8.758;2023-06-19T14:38:50;28.20;99.90
11846;DHT22;5982;37.494;-8.758;2023-06-19T14:41:18;28.50;99.90
11846;DHT22;5982;37.494;-8.758;2023-06-19T14:43:46;28.90;99.90
11846;DHT22;5982;37.494;-8.758;2023-06-19T14:46:14;29.10;99.90
11846;DHT22;5982;37.494;-8.758;2023-06-19T14:48:42;29.30;99.90
11846;DHT22;5982;37.494;-8.758;2023-06-19T14:51:10;29.30;99.90
11846;DHT22;5982;37.494;-8.758;2023-06-19T14:53:38;29.20;99.90
11846;DHT22;5982;37.494;-8.758;2023-06-19T14:56:08;29.20;99.90
11846;DHT22;5982;37.494;-8.758;2023-06-19T14:58:40;29.10;99.90
11846;DHT22;5982;37.494;-8.758;2023-06-19T15:01:08;28.90;99.90
11846;DHT22;5982;37.494;-8.758;2023-06-19T15:03:36;28.80;99.90
11846;DHT22;5982;37.494;-8.758;2023-06-19T15:06:04;28.60;99.90
11846;DHT22;5982;37.494;-8.758;2023-06-19T15:08:32;28.70;99.90
11846;DHT22;5982;37.494;-8.758;2023-06-19T15:11:01;28.90;99.90
11846;DHT22;5982;37.494;-8.758;2023-06-19T15:13:31;29.30;99.90
11846;DHT22;5982;37.494;-8.758;2023-06-19T15:15:59;29.80;99.90
11846;DHT22;5982;37.494;-8.758;2023-06-19T15:18:28;29.70;99.90
11846;DHT22;5982;37.494;-8.758;2023-06-19T15:20:56;29.40;99.90
11846;DHT22;5982;37.494;-8.758;2023-06-19T15:23:24;29.00;99.90
11846;DHT22;5982;37.494;-8.758;2023-06-19T15:25:52;28.90;99.90
11846;DHT22;5982;37.494;-8.758;2023-06-19T15:28:20;28.80;99.90
11846;DHT22;5982;37.494;-8.758;2023-06-19T15:30:49;28.90;99.90
11846;DHT22;5982;37.494;-8.758;2023-06-19T15:33:17;29.00;99.90
11846;DHT22;5982;37.494;-8.758;2023-06-19T15:35:45;29.00;99.90
11846;DHT22;5982;37.494;-8.758;2023-06-19T15:38:13;29.40;99.90